createdAt,value
2018-05-23T00:01:58.300Z,12.57
2018-05-23T00:07:20.509Z,14.23
2018-05-23T00:09:50.212Z,12.57
2018-05-23T00:12:19.792Z,15.37
2018-05-23T00:14:51.254Z,17.07
2018-05-23T00:17:20.913Z,20.23
2018-05-23T00:19:57.652Z,20.23
2018-05-23T00:22:31.080Z,21.77
2018-05-23T00:25:27.876Z,20.23
2018-05-23T00:31:13.963Z,26.07
2018-05-23T00:33:44.068Z,25.03
2018-05-23T00:36:13.806Z,22.93
2018-05-23T00:38:44.590Z,19.83
2018-05-23T00:41:14.333Z,18.73
2018-05-23T00:43:44.116Z,25.37
2018-05-23T00:46:13.627Z,22.13
2018-05-23T00:48:43.423Z,22.60
2018-05-23T00:51:13.220Z,20.33
2018-05-23T00:53:44.139Z,25.40
2018-05-23T00:56:17.770Z,26.40
2018-05-23T00:58:49.765Z,25.67
2018-05-23T01:01:21.001Z,27.43
2018-05-23T01:03:53.117Z,33.10
2018-05-23T01:06:24.957Z,30.50
2018-05-23T01:08:55.516Z,31.10
2018-05-23T01:11:25.826Z,33.60
2018-05-23T01:13:55.661Z,38.63
2018-05-23T01:16:25.568Z,41.73
2018-05-23T01:18:55.572Z,35.23
2018-05-23T01:21:26.129Z,31.63
2018-05-23T01:23:57.447Z,17.83
2018-05-23T01:26:27.463Z,18.17
2018-05-23T01:28:58.192Z,17.17
2018-05-23T01:31:28.057Z,25.57
2018-05-23T01:33:58.601Z,47.03
2018-05-23T01:36:29.087Z,51.20
2018-05-23T01:38:58.909Z,32.90
2018-05-23T01:41:29.004Z,94.77
2018-05-23T01:43:59.117Z,22.20
2018-05-23T01:46:41.327Z,21.97
2018-05-23T01:49:27.973Z,23.67
2018-05-23T01:51:58.006Z,24.40
2018-05-23T01:54:27.644Z,27.57
2018-05-23T01:56:57.306Z,28.97
2018-05-23T01:59:27.819Z,28.43
2018-05-23T02:01:57.657Z,29.23
2018-05-23T02:04:33.495Z,29.10
2018-05-23T02:07:16.919Z,38.47
2018-05-23T02:09:47.335Z,30.27
2018-05-23T02:12:18.694Z,34.93
2018-05-23T02:14:48.614Z,31.07
2018-05-23T02:17:18.062Z,32.37
2018-05-23T02:19:50.355Z,27.10
2018-05-23T02:22:21.626Z,24.57
2018-05-23T02:24:52.322Z,24.37
2018-05-23T02:27:22.997Z,30.57
2018-05-23T02:29:52.609Z,29.90
2018-05-23T02:32:22.904Z,26.67
2018-05-23T02:34:52.927Z,1320.30
2018-05-23T02:37:22.851Z,1342.77
2018-05-23T02:39:52.555Z,1330.13
2018-05-23T02:42:22.064Z,1999.90
2018-05-23T02:44:51.577Z,1999.90
2018-05-23T02:47:22.922Z,1999.90
2018-05-23T02:49:52.515Z,1999.90
2018-05-23T02:52:22.387Z,1725.93
2018-05-23T02:58:03.470Z,1468.47
2018-05-23T03:00:34.490Z,1415.23
2018-05-23T03:03:04.235Z,1002.17
2018-05-23T03:05:33.896Z,1118.90
2018-05-23T03:08:03.605Z,643.57
2018-05-23T03:10:33.105Z,966.77
2018-05-23T03:13:02.844Z,842.67
2018-05-23T03:15:32.450Z,662.60
2018-05-23T03:18:02.861Z,524.70
2018-05-23T03:20:32.774Z,434.10
2018-05-23T03:23:03.155Z,371.63
2018-05-23T03:25:34.158Z,102.47
2018-05-23T03:31:11.691Z,64.50
2018-05-23T03:33:43.057Z,67.83
2018-05-23T03:36:13.037Z,57.00
2018-05-23T03:38:42.744Z,51.73
2018-05-23T03:41:13.027Z,55.57
2018-05-23T03:43:42.862Z,46.37
2018-05-23T03:46:13.099Z,44.80
2018-05-23T03:48:42.698Z,50.50
2018-05-23T03:51:13.642Z,40.67
2018-05-23T03:53:43.540Z,31.77
2018-05-23T03:56:13.385Z,34.90
2018-05-23T03:58:43.153Z,37.30
2018-05-23T04:01:30.532Z,47.53
2018-05-23T04:04:25.024Z,229.90
2018-05-23T04:10:07.131Z,36.23
2018-05-23T04:12:37.029Z,41.73
2018-05-23T04:15:06.963Z,44.83
2018-05-23T04:17:37.309Z,36.73
2018-05-23T04:20:08.241Z,42.67
2018-05-23T04:22:39.145Z,34.67
2018-05-23T04:25:08.733Z,551.60
2018-05-23T04:27:38.289Z,170.13
2018-05-23T04:30:08.060Z,71.30
2018-05-23T04:32:37.933Z,127.53
2018-05-23T04:35:08.952Z,179.90
2018-05-23T04:37:39.277Z,60.33
2018-05-23T04:40:08.922Z,721.10
2018-05-23T04:42:38.914Z,272.10
2018-05-23T04:45:08.499Z,767.80
2018-05-23T04:47:45.199Z,47.00
2018-05-23T04:50:14.888Z,44.27
2018-05-23T04:52:47.215Z,42.67
2018-05-23T04:55:17.624Z,43.67
2018-05-23T04:57:47.299Z,45.17
2018-05-23T05:00:18.011Z,52.33
2018-05-23T05:02:48.069Z,43.57
2018-05-23T05:05:18.696Z,83.20
2018-05-23T05:07:49.737Z,55.57
2018-05-23T05:10:20.939Z,50.73
2018-05-23T05:12:51.738Z,69.47
2018-05-23T05:15:22.354Z,235.33
2018-05-23T05:17:52.748Z,1396.10
2018-05-23T05:20:22.401Z,898.17
2018-05-23T05:22:52.195Z,385.77
2018-05-23T05:25:22.221Z,251.30
2018-05-23T05:27:53.162Z,1402.63
2018-05-23T05:30:23.005Z,1644.77
2018-05-23T05:32:52.897Z,125.67
2018-05-23T05:35:29.566Z,1092.23
2018-05-23T05:38:00.415Z,480.37
2018-05-23T05:40:32.260Z,605.40
2018-05-23T05:43:02.420Z,71.67
2018-05-23T05:45:32.937Z,54.80
2018-05-23T05:48:03.273Z,79.40
2018-05-23T05:50:34.388Z,42.27
2018-05-23T05:53:05.090Z,104.73
2018-05-23T05:55:34.751Z,54.53
2018-05-23T05:58:05.140Z,37.03
2018-05-23T06:00:34.881Z,43.20
2018-05-23T06:03:04.387Z,34.90
2018-05-23T06:05:34.284Z,30.63
2018-05-23T06:08:04.156Z,30.70
2018-05-23T06:10:34.002Z,30.90
2018-05-23T06:13:03.554Z,36.83
2018-05-23T06:15:33.884Z,31.97
2018-05-23T06:18:03.527Z,29.73
2018-05-23T06:20:33.146Z,19.93
2018-05-23T06:23:03.749Z,26.13
2018-05-23T06:25:33.482Z,31.33
2018-05-23T06:28:03.065Z,32.93
2018-05-23T06:30:32.616Z,611.67
2018-05-23T06:33:02.759Z,892.43
2018-05-23T06:35:32.311Z,879.83
2018-05-23T06:38:02.382Z,518.63
2018-05-23T06:40:32.350Z,107.00
2018-05-23T06:43:02.678Z,880.37
2018-05-23T06:45:32.284Z,671.00
2018-05-23T06:48:03.546Z,215.20
2018-05-23T06:50:33.236Z,1199.47
2018-05-23T06:53:03.182Z,844.93
2018-05-23T06:55:33.089Z,839.17
2018-05-23T06:58:02.960Z,101.30
2018-05-23T07:00:32.823Z,370.03
2018-05-23T07:03:03.573Z,1999.90
2018-05-23T07:05:36.070Z,31.63
2018-05-23T07:08:06.617Z,31.03
2018-05-23T07:10:37.089Z,99.87
2018-05-23T07:13:06.651Z,15.37
2018-05-23T07:15:36.438Z,24.53
2018-05-23T07:18:06.489Z,17.87
2018-05-23T07:20:36.133Z,17.43
2018-05-23T07:23:06.057Z,14.90
2018-05-23T07:25:35.778Z,10.63
2018-05-23T07:28:06.166Z,13.60
2018-05-23T07:30:37.231Z,8.83
2018-05-23T07:33:08.890Z,11.00
2018-05-23T07:35:38.551Z,11.53
2018-05-23T07:38:08.853Z,11.43
2018-05-23T07:40:39.845Z,9.90
2018-05-23T07:43:09.411Z,8.90
2018-05-23T07:45:39.908Z,8.43
2018-05-23T07:48:10.432Z,7.93
2018-05-23T07:50:40.296Z,9.97
2018-05-23T07:53:09.966Z,11.50
2018-05-23T07:55:40.493Z,9.33
2018-05-23T07:58:10.404Z,12.60
2018-05-23T08:00:40.906Z,11.10
2018-05-23T08:03:10.623Z,8.47
2018-05-23T08:05:43.162Z,6.83
2018-05-23T08:08:22.941Z,6.43
2018-05-23T08:10:54.083Z,7.90
2018-05-23T08:13:23.566Z,6.50
2018-05-23T08:15:54.036Z,5.13
2018-05-23T08:18:24.159Z,6.37
2018-05-23T08:20:53.979Z,4.00
2018-05-23T08:23:23.843Z,5.90
2018-05-23T08:25:54.831Z,4.17
2018-05-23T08:28:25.619Z,6.17
2018-05-23T08:30:56.264Z,6.57
2018-05-23T08:33:26.106Z,7.07
2018-05-23T08:35:56.709Z,4.37
2018-05-23T08:38:26.405Z,6.07
2018-05-23T08:40:55.971Z,6.53
2018-05-23T08:43:25.544Z,7.00
2018-05-23T08:45:55.676Z,4.90
2018-05-23T08:48:25.303Z,7.83
2018-05-23T08:50:54.922Z,7.13
2018-05-23T08:53:24.562Z,5.77
2018-05-23T08:55:55.056Z,7.60
2018-05-23T08:58:24.667Z,10.33
2018-05-23T09:00:54.340Z,9.60
2018-05-23T09:06:05.103Z,8.40
2018-05-23T09:08:35.712Z,5.47
2018-05-23T09:11:05.417Z,6.13
2018-05-23T09:13:35.088Z,6.73
2018-05-23T09:16:05.325Z,6.30
2018-05-23T09:18:35.108Z,6.23
2018-05-23T09:21:05.990Z,15.13
2018-05-23T09:23:35.722Z,12.17
2018-05-23T09:26:05.395Z,7.27
2018-05-23T09:28:35.093Z,5.60
2018-05-23T09:31:04.611Z,6.17
2018-05-23T09:33:34.315Z,5.50
2018-05-23T09:36:03.958Z,5.57
2018-05-23T09:38:34.330Z,5.13
2018-05-23T09:41:05.000Z,6.33
2018-05-23T09:43:34.825Z,7.23
2018-05-23T09:46:04.420Z,6.50
2018-05-23T09:48:34.014Z,4.63
2018-05-23T09:51:03.751Z,3.70
2018-05-23T09:53:33.343Z,4.37
2018-05-23T09:56:03.061Z,3.97
2018-05-23T09:58:34.254Z,6.13
2018-05-23T10:01:04.425Z,5.10
2018-05-23T10:03:34.100Z,4.73
2018-05-23T10:06:03.778Z,5.53
2018-05-23T10:08:33.573Z,4.43
2018-05-23T10:11:07.110Z,4.57
2018-05-23T10:14:05.277Z,6.60
2018-05-23T10:19:40.000Z,6.13
2018-05-23T10:22:09.873Z,5.70
2018-05-23T10:24:39.834Z,7.60
2018-05-23T10:27:09.515Z,7.40
2018-05-23T10:29:39.267Z,6.43
2018-05-23T10:32:08.985Z,6.30
2018-05-23T10:34:38.767Z,3.97
2018-05-23T10:37:08.421Z,5.17
2018-05-23T10:39:37.993Z,3.93
2018-05-23T10:42:07.592Z,5.17
2018-05-23T10:44:37.191Z,6.63
2018-05-23T10:47:06.697Z,6.27
2018-05-23T10:49:37.623Z,4.27
2018-05-23T10:52:07.282Z,4.27
2018-05-23T10:54:36.988Z,5.80
2018-05-23T10:57:06.782Z,5.60
2018-05-23T10:59:36.490Z,6.00
2018-05-23T11:02:06.867Z,4.80
2018-05-23T11:04:36.419Z,4.68
2018-05-23T11:07:06.264Z,6.12
2018-05-23T11:09:36.098Z,3.62
2018-05-23T11:12:05.743Z,5.43
2018-05-23T11:14:35.472Z,4.43
2018-05-23T11:17:05.490Z,4.72
2018-05-23T11:19:35.095Z,3.78
2018-05-23T11:22:04.669Z,5.90
2018-05-23T11:24:34.520Z,3.87
2018-05-23T11:27:04.236Z,3.70
2018-05-23T11:29:35.147Z,3.50
2018-05-23T11:32:04.775Z,7.22
2018-05-23T11:34:34.432Z,3.78
2018-05-23T11:37:04.812Z,6.00
2018-05-23T11:39:34.416Z,4.93
2018-05-23T11:42:04.248Z,3.42
2018-05-23T11:44:33.815Z,3.62
2018-05-23T11:47:15.129Z,4.65
2018-05-23T11:49:45.429Z,3.17
2018-05-23T11:52:15.103Z,8.18
2018-05-23T11:54:44.819Z,9.25
2018-05-23T11:57:15.204Z,6.70
2018-05-23T11:59:45.729Z,5.03
2018-05-23T12:02:15.341Z,4.90
2018-05-23T12:04:44.920Z,4.95
2018-05-23T12:07:14.527Z,3.83
2018-05-23T12:09:44.149Z,4.57
2018-05-23T12:12:13.984Z,5.05
2018-05-23T12:14:44.711Z,4.20
2018-05-23T12:17:14.396Z,3.78
2018-05-23T12:19:48.631Z,4.85
2018-05-23T12:22:18.301Z,4.53
2018-05-23T12:24:48.032Z,3.78
2018-05-23T12:27:17.779Z,3.90
2018-05-23T12:29:47.467Z,6.05
2018-05-23T12:32:17.353Z,4.32
2018-05-23T12:34:47.101Z,4.90
2018-05-23T12:37:16.979Z,5.15
2018-05-23T12:39:46.832Z,6.95
2018-05-23T12:42:16.726Z,4.60
2018-05-23T12:44:46.335Z,4.40
2018-05-23T12:47:16.015Z,4.17
2018-05-23T12:49:45.585Z,5.50
2018-05-23T12:52:15.201Z,5.43
2018-05-23T12:54:45.016Z,4.80
2018-05-23T12:57:14.706Z,5.20
2018-05-23T12:59:44.626Z,4.53
2018-05-23T13:02:14.241Z,6.50
2018-05-23T13:04:43.724Z,3.50
2018-05-23T13:07:13.456Z,5.57
2018-05-23T13:09:43.063Z,6.03
2018-05-23T13:12:12.652Z,4.80
2018-05-23T13:14:42.322Z,6.00
2018-05-23T13:17:12.615Z,4.50
2018-05-23T13:19:43.432Z,5.30
2018-05-23T13:22:12.937Z,4.40
2018-05-23T13:24:42.477Z,3.97
2018-05-23T13:27:12.886Z,5.67
2018-05-23T13:29:43.453Z,4.57
2018-05-23T13:32:13.074Z,6.00
2018-05-23T13:34:43.398Z,6.57
2018-05-23T13:37:12.981Z,7.43
2018-05-23T13:39:42.666Z,5.23
2018-05-23T13:42:12.258Z,7.23
2018-05-23T13:44:42.079Z,3.93
2018-05-23T13:47:11.710Z,3.20
2018-05-23T13:49:41.364Z,4.87
2018-05-23T13:52:11.948Z,4.10
2018-05-23T13:54:42.262Z,2.90
2018-05-23T13:57:12.789Z,5.53
2018-05-23T13:59:42.923Z,2.93
2018-05-23T14:02:12.953Z,5.33
2018-05-23T14:04:43.022Z,3.80
2018-05-23T14:07:13.019Z,3.47
2018-05-23T14:09:43.417Z,5.37
2018-05-23T14:12:13.436Z,3.67
2018-05-23T14:14:57.391Z,4.80
2018-05-23T14:17:53.904Z,3.60
2018-05-23T14:27:04.385Z,7.83
2018-05-23T14:29:34.323Z,5.90
2018-05-23T14:32:05.053Z,4.17
2018-05-23T14:34:34.719Z,5.10
2018-05-23T14:37:05.337Z,6.73
2018-05-23T14:39:35.828Z,5.23
2018-05-23T14:42:05.356Z,6.30
2018-05-23T14:44:35.049Z,4.00
2018-05-23T14:47:04.746Z,3.57
2018-05-23T14:49:35.488Z,6.83
2018-05-23T14:52:05.220Z,3.93
2018-05-23T14:54:34.990Z,4.23
2018-05-23T14:57:04.934Z,3.40
2018-05-23T14:59:34.640Z,3.20
2018-05-23T15:02:04.795Z,3.73
2018-05-23T15:04:35.509Z,4.50
2018-05-23T15:07:05.324Z,6.10
2018-05-23T15:09:35.112Z,5.50
2018-05-23T15:12:04.869Z,4.03
2018-05-23T15:14:34.461Z,4.53
2018-05-23T15:17:03.969Z,6.57
2018-05-23T15:19:33.692Z,4.17
2018-05-23T15:22:04.965Z,3.23
2018-05-23T15:24:35.545Z,4.40
2018-05-23T15:27:05.241Z,3.77
2018-05-23T15:29:34.868Z,7.17
2018-05-23T15:32:04.473Z,5.90
2018-05-23T15:34:34.145Z,4.97
2018-05-23T15:37:04.507Z,7.37
2018-05-23T15:39:34.121Z,4.80
2018-05-23T15:42:04.955Z,4.40
2018-05-23T15:44:36.108Z,6.53
2018-05-23T15:47:06.628Z,3.53
2018-05-23T15:49:36.992Z,2.93
2018-05-23T15:52:07.225Z,5.23
2018-05-23T15:54:37.776Z,4.90
2018-05-23T15:57:08.239Z,4.43
2018-05-23T15:59:38.207Z,5.17
2018-05-23T16:02:08.615Z,4.30
2018-05-23T16:04:39.161Z,5.27
2018-05-23T16:07:09.115Z,4.90
2018-05-23T16:09:38.639Z,9.80
2018-05-23T16:12:08.148Z,6.53
2018-05-23T16:14:38.323Z,5.83
2018-05-23T16:17:23.253Z,3.50
2018-05-23T16:19:52.966Z,5.33
2018-05-23T16:22:22.854Z,4.90
2018-05-23T16:24:53.886Z,6.10
2018-05-23T16:27:23.808Z,6.13
2018-05-23T16:29:53.736Z,4.13
2018-05-23T16:32:23.440Z,5.87
2018-05-23T16:34:53.057Z,6.57
2018-05-23T16:37:22.626Z,3.50
2018-05-23T16:39:53.832Z,3.67
2018-05-23T16:42:23.339Z,3.43
2018-05-23T16:44:53.699Z,3.40
2018-05-23T16:47:23.453Z,4.33
2018-05-23T16:49:53.045Z,4.50
2018-05-23T16:52:24.313Z,4.93
2018-05-23T16:54:54.025Z,4.23
2018-05-23T16:57:23.772Z,4.40
2018-05-23T16:59:53.365Z,7.30
2018-05-23T17:02:23.781Z,5.07
2018-05-23T17:04:53.906Z,3.20
2018-05-23T17:07:23.490Z,3.40
2018-05-23T17:09:53.102Z,4.13
2018-05-23T17:12:22.757Z,5.27
2018-05-23T17:14:52.736Z,5.57
2018-05-23T17:17:22.744Z,5.30
2018-05-23T17:19:52.547Z,3.93
2018-05-23T17:22:22.797Z,7.63
2018-05-23T17:25:05.399Z,2.97
2018-05-23T17:27:37.061Z,5.13
2018-05-23T17:30:07.067Z,3.37
2018-05-23T17:32:36.981Z,5.43
2018-05-23T17:35:06.697Z,4.27
2018-05-23T17:37:36.526Z,3.17
2018-05-23T17:40:06.729Z,3.87
2018-05-23T17:42:36.444Z,4.47
2018-05-23T17:45:06.277Z,3.03
2018-05-23T17:47:35.902Z,3.23
2018-05-23T17:50:05.702Z,2.90
2018-05-23T17:52:36.045Z,3.73
2018-05-23T17:55:05.817Z,8.30
2018-05-23T17:57:35.512Z,4.97
2018-05-23T18:00:05.308Z,5.30
2018-05-23T18:02:35.032Z,4.50
2018-05-23T18:05:05.506Z,5.03
2018-05-23T18:07:35.181Z,3.40
2018-05-23T18:10:05.024Z,3.90
2018-05-23T18:12:34.814Z,3.23
2018-05-23T18:15:06.000Z,5.17
2018-05-23T18:17:36.587Z,5.17
2018-05-23T18:20:06.333Z,4.63
2018-05-23T18:22:36.599Z,5.37
2018-05-23T18:25:06.540Z,4.50
2018-05-23T18:27:36.199Z,3.37
2018-05-23T18:30:06.060Z,6.23
2018-05-23T18:32:35.875Z,8.03
2018-05-23T18:35:06.050Z,4.00
2018-05-23T18:37:36.786Z,4.67
2018-05-23T18:40:07.362Z,4.87
2018-05-23T18:42:37.842Z,5.87
2018-05-23T18:45:07.809Z,6.13
2018-05-23T18:47:37.615Z,4.27
2018-05-23T18:50:09.274Z,5.60
2018-05-23T18:52:38.779Z,8.83
2018-05-23T18:55:09.820Z,6.50
2018-05-23T18:57:39.370Z,5.33
2018-05-23T19:00:09.856Z,4.20
2018-05-23T19:02:39.572Z,4.00
2018-05-23T19:05:09.229Z,7.73
2018-05-23T19:07:39.698Z,5.83
2018-05-23T19:10:09.885Z,5.20
2018-05-23T19:12:39.538Z,6.43
2018-05-23T19:15:09.165Z,4.17
2018-05-23T19:17:38.701Z,6.17
2018-05-23T19:20:09.233Z,4.80
2018-05-23T19:22:39.021Z,8.17
2018-05-23T19:25:08.913Z,4.93
2018-05-23T19:27:38.730Z,5.47
2018-05-23T19:30:08.299Z,7.13
2018-05-23T19:32:37.836Z,5.00
2018-05-23T19:35:08.640Z,6.50
2018-05-23T19:37:38.276Z,7.97
2018-05-23T19:40:07.991Z,6.10
2018-05-23T19:42:37.640Z,4.80
2018-05-23T19:45:07.220Z,6.67
2018-05-23T19:47:36.793Z,5.73
2018-05-23T19:50:06.376Z,7.77
2018-05-23T19:52:36.111Z,5.93
2018-05-23T19:55:05.677Z,7.50
2018-05-23T19:57:37.605Z,6.70
2018-05-23T20:00:07.425Z,7.57
2018-05-23T20:02:37.176Z,7.13
2018-05-23T20:05:06.962Z,7.53
2018-05-23T20:07:36.663Z,7.80
2018-05-23T20:10:06.264Z,9.70
2018-05-23T20:12:35.943Z,7.97
2018-05-23T20:15:05.569Z,7.33
2018-05-23T20:17:35.297Z,8.47
2018-05-23T20:20:05.027Z,7.83
2018-05-23T20:22:34.627Z,9.60
2018-05-23T20:25:04.507Z,10.07
2018-05-23T20:27:34.868Z,8.73
2018-05-23T20:30:04.640Z,11.33
2018-05-23T20:32:35.007Z,7.60
2018-05-23T20:35:04.722Z,8.40
2018-05-23T20:37:34.707Z,9.17
2018-05-23T20:40:05.123Z,7.93
2018-05-23T20:42:34.775Z,7.50
2018-05-23T20:45:04.500Z,8.50
2018-05-23T20:47:34.087Z,8.53
2018-05-23T20:50:03.698Z,7.93
2018-05-23T20:52:33.643Z,9.80
2018-05-23T20:55:03.816Z,7.70
2018-05-23T20:57:33.358Z,10.53
2018-05-23T21:00:04.067Z,8.23
2018-05-23T21:02:33.656Z,11.77
2018-05-23T21:05:03.637Z,9.53
2018-05-23T21:07:33.212Z,10.37
2018-05-23T21:10:03.093Z,9.73
2018-05-23T21:12:32.978Z,9.57
2018-05-23T21:15:04.278Z,12.53
2018-05-23T21:17:33.945Z,9.63
2018-05-23T21:20:03.590Z,11.70
2018-05-23T21:22:33.203Z,10.23
2018-05-23T21:25:03.835Z,9.50
2018-05-23T21:27:33.427Z,8.37
2018-05-23T21:30:04.341Z,8.07
2018-05-23T21:32:35.903Z,8.03
2018-05-23T21:35:06.375Z,6.87
2018-05-23T21:37:35.994Z,8.27
2018-05-23T21:40:06.996Z,8.73
2018-05-23T21:42:37.285Z,7.20
2018-05-23T21:45:06.897Z,9.40
2018-05-23T21:47:36.545Z,10.47
2018-05-23T21:50:07.813Z,9.93
2018-05-23T21:52:38.215Z,8.80
2018-05-23T21:58:38.997Z,8.43
2018-05-23T22:01:08.900Z,8.27
2018-05-23T22:03:39.624Z,7.80
2018-05-23T22:06:09.920Z,7.97
2018-05-23T22:08:40.400Z,9.60
2018-05-23T22:11:10.105Z,8.77
2018-05-23T22:13:40.014Z,8.80
2018-05-23T22:16:09.591Z,13.23
2018-05-23T22:18:39.093Z,12.93
2018-05-23T22:21:09.015Z,11.00
2018-05-23T22:24:06.366Z,10.63
2018-05-23T22:26:36.201Z,12.60
2018-05-23T22:29:05.963Z,11.50
2018-05-23T22:31:35.499Z,9.87
2018-05-23T22:34:05.135Z,11.40
2018-05-23T22:36:34.872Z,9.77
2018-05-23T22:39:06.023Z,9.73
2018-05-23T22:41:36.631Z,9.00
2018-05-23T22:44:06.339Z,9.47
2018-05-23T22:46:36.655Z,10.43
2018-05-23T22:49:07.307Z,9.37
2018-05-23T22:55:03.661Z,8.17
2018-05-23T22:57:33.694Z,8.23
2018-05-23T23:00:06.725Z,7.93
2018-05-23T23:02:37.620Z,7.23
2018-05-23T23:05:08.236Z,10.77
2018-05-23T23:07:37.765Z,7.80
2018-05-23T23:10:08.876Z,8.93
2018-05-23T23:12:38.522Z,9.00
2018-05-23T23:15:08.181Z,9.17
2018-05-23T23:17:37.725Z,10.10
2018-05-23T23:20:07.428Z,9.30
2018-05-23T23:22:40.050Z,10.53
2018-05-23T23:25:10.709Z,11.93
2018-05-23T23:27:41.205Z,9.97
2018-05-23T23:30:11.279Z,10.10
2018-05-23T23:32:40.930Z,11.43
2018-05-23T23:35:10.573Z,11.77
2018-05-23T23:37:40.482Z,10.23
2018-05-23T23:40:11.058Z,10.80
2018-05-23T23:42:41.697Z,11.77
2018-05-23T23:45:11.322Z,12.30
2018-05-23T23:47:44.193Z,12.20
2018-05-23T23:50:14.538Z,12.70
2018-05-23T23:52:46.764Z,13.63
2018-05-23T23:55:18.423Z,22.43
2018-05-23T23:57:48.065Z,13.97
